Milltown, Indiana
Current Conditions -  °F | °C
As of 9:56 AM on Sunday 21 Dec 2014 (Local Time) from KSDF Reporting Station
Haze Haze  
Wind Chill: 26°   Ceiling: 25000
Heat Index: 31°   Visibility: 4mi
Dew Point: 27°   Wind: 5mph
Humidity: 85%   Direction: 70°ENE
Pressure: 30.3"   Gusts: NA
Location:  38.34°N, 86.28°W
Report Text: KSDF 211456Z 07004KT 4SM BR BKN250 M01/M03 A3030 RMK AO2 SLP265 I3000 T10061028 50004
Loading
Personal Weather Stations






























Interactive Weather Map New forecast layout! Learn more

10-Day Weather Forecast

Advertisements
Track Severe Weather on mobile